sensor_id;sensor_type;location;lat;lon;timestamp;pressure;altitude;pressure_sealevel;temperature;humidity
42125;BME280;27787;44.594;11.046;2022-10-31T00:02:32;101681.75;;;15.57;85.74
42125;BME280;27787;44.594;11.046;2022-10-31T00:05:16;101685.38;;;15.63;85.48
42125;BME280;27787;44.594;11.046;2022-10-31T00:08:00;101679.09;;;15.55;84.30
42125;BME280;27787;44.594;11.046;2022-10-31T00:10:45;101687.06;;;15.46;85.31
42125;BME280;27787;44.594;11.046;2022-10-31T00:13:30;101685.28;;;15.42;85.57
42125;BME280;27787;44.594;11.046;2022-10-31T00:16:17;101685.28;;;15.39;85.28
42125;BME280;27787;44.594;11.046;2022-10-31T00:19:03;101685.28;;;15.38;84.99
42125;BME280;27787;44.594;11.046;2022-10-31T00:21:48;101686.16;;;15.33;84.73
42125;BME280;27787;44.594;11.046;2022-10-31T00:24:32;101687.91;;;15.33;84.96
42125;BME280;27787;44.594;11.046;2022-10-31T00:27:16;101688.81;;;15.35;84.76
42125;BME280;27787;44.594;11.046;2022-10-31T00:30:00;101682.59;;;15.36;84.25
42125;BME280;27787;44.594;11.046;2022-10-31T00:32:44;101680.84;;;15.40;84.87
42125;BME280;27787;44.594;11.046;2022-10-31T00:35:28;101681.75;;;15.43;84.54
42125;BME280;27787;44.594;11.046;2022-10-31T00:38:12;101680.84;;;15.43;84.30
42125;BME280;27787;44.594;11.046;2022-10-31T00:40:57;101682.63;;;15.44;84.09
42125;BME280;27787;44.594;11.046;2022-10-31T00:43:42;101683.50;;;15.46;83.93
42125;BME280;27787;44.594;11.046;2022-10-31T00:46:27;101675.53;;;15.46;84.05
42125;BME280;27787;44.594;11.046;2022-10-31T00:49:12;101681.75;;;15.46;83.71
42125;BME280;27787;44.594;11.046;2022-10-31T00:51:56;101681.75;;;15.46;83.24
42125;BME280;27787;44.594;11.046;2022-10-31T00:54:40;101679.09;;;15.37;84.05
42125;BME280;27787;44.594;11.046;2022-10-31T00:57:24;101686.19;;;15.41;83.64
42125;BME280;27787;44.594;11.046;2022-10-31T01:00:11;101683.47;;;15.32;83.21
42125;BME280;27787;44.594;11.046;2022-10-31T01:02:55;101679.00;;;15.20;83.69
42125;BME280;27787;44.594;11.046;2022-10-31T01:05:39;101681.63;;;15.10;84.17
42125;BME280;27787;44.594;11.046;2022-10-31T01:08:23;101683.41;;;15.06;85.15
42125;BME280;27787;44.594;11.046;2022-10-31T01:11:19;101679.84;;;14.98;85.08
42125;BME280;27787;44.594;11.046;2022-10-31T01:14:03;101685.13;;;14.96;85.23
42125;BME280;27787;44.594;11.046;2022-10-31T01:16:49;101683.34;;;14.89;85.46
42125;BME280;27787;44.594;11.046;2022-10-31T01:19:33;101679.78;;;14.87;85.45
42125;BME280;27787;44.594;11.046;2022-10-31T01:22:17;101681.50;;;14.79;85.48
42125;BME280;27787;44.594;11.046;2022-10-31T01:25:02;101680.63;;;14.72;85.79
42125;BME280;27787;44.594;11.046;2022-10-31T01:27:46;101681.44;;;14.67;86.08
42125;BME280;27787;44.594;11.046;2022-10-31T01:30:30;101679.69;;;14.69;86.14
42125;BME280;27787;44.594;11.046;2022-10-31T01:33:14;101680.63;;;14.75;85.42
42125;BME280;27787;44.594;11.046;2022-10-31T01:35:59;101682.41;;;14.80;84.95
42125;BME280;27787;44.594;11.046;2022-10-31T01:38:44;101683.28;;;14.83;84.43
42125;BME280;27787;44.594;11.046;2022-10-31T01:41:31;101681.53;;;14.82;83.84
42125;BME280;27787;44.594;11.046;2022-10-31T01:47:05;101677.97;;;14.79;83.91
42125;BME280;27787;44.594;11.046;2022-10-31T01:49:59;101674.44;;;14.84;83.24
42125;BME280;27787;44.594;11.046;2022-10-31T01:52:46;101674.44;;;14.81;83.03
42125;BME280;27787;44.594;11.046;2022-10-31T01:55:34;101671.78;;;14.83;83.10
42125;BME280;27787;44.594;11.046;2022-10-31T01:58:23;101674.47;;;14.87;82.17
42125;BME280;27787;44.594;11.046;2022-10-31T02:01:09;101674.47;;;14.92;81.60
42125;BME280;27787;44.594;11.046;2022-10-31T02:03:54;101675.38;;;14.97;81.14
42125;BME280;27787;44.594;11.046;2022-10-31T02:06:59;101668.28;;;14.93;81.00
42125;BME280;27787;44.594;11.046;2022-10-31T02:09:47;101670.94;;;14.94;81.60
42125;BME280;27787;44.594;11.046;2022-10-31T02:12:35;101670.06;;;14.91;81.71
42125;BME280;27787;44.594;11.046;2022-10-31T02:15:22;101670.00;;;14.83;81.58
42125;BME280;27787;44.594;11.046;2022-10-31T02:18:07;101658.47;;;14.83;81.93
42125;BME280;27787;44.594;11.046;2022-10-31T02:30:07;101657.59;;;14.79;81.26
42125;BME280;27787;44.594;11.046;2022-10-31T02:33:07;101663.81;;;14.84;81.19
42125;BME280;27787;44.594;11.046;2022-10-31T02:36:14;101658.53;;;14.87;80.45
42125;BME280;27787;44.594;11.046;2022-10-31T02:39:12;101663.84;;;14.96;79.89
42125;BME280;27787;44.594;11.046;2022-10-31T02:42:20;101659.47;;;15.01;78.86
42125;BME280;27787;44.594;11.046;2022-10-31T02:48:31;101662.06;;;14.92;78.66
42125;BME280;27787;44.594;11.046;2022-10-31T02:51:19;101664.72;;;14.88;79.19
42125;BME280;27787;44.594;11.046;2022-10-31T02:54:17;101670.88;;;14.82;79.02
42125;BME280;27787;44.594;11.046;2022-10-31T02:57:04;101663.78;;;14.72;79.71
42125;BME280;27787;44.594;11.046;2022-10-31T02:59:56;101667.28;;;14.69;80.18
42125;BME280;27787;44.594;11.046;2022-10-31T03:09:22;101675.19;;;14.54;79.86
42125;BME280;27787;44.594;11.046;2022-10-31T03:12:11;101670.72;;;14.47;80.21
42125;BME280;27787;44.594;11.046;2022-10-31T03:15:24;101673.38;;;14.47;80.24
42125;BME280;27787;44.594;11.046;2022-10-31T03:18:15;101670.66;;;14.42;80.31
42125;BME280;27787;44.594;11.046;2022-10-31T03:21:21;101668.84;;;14.35;80.71
42125;BME280;27787;44.594;11.046;2022-10-31T03:24:08;101667.91;;;14.27;81.16
42125;BME280;27787;44.594;11.046;2022-10-31T03:26:56;101673.13;;;14.16;82.10
42125;BME280;27787;44.594;11.046;2022-10-31T03:29:42;101667.78;;;14.07;82.58
42125;BME280;27787;44.594;11.046;2022-10-31T03:32:32;101662.41;;;14.04;83.28
42125;BME280;27787;44.594;11.046;2022-10-31T03:35:23;101658.97;;;14.14;83.06
42125;BME280;27787;44.594;11.046;2022-10-31T03:38:08;101668.69;;;14.17;81.29
42125;BME280;27787;44.594;11.046;2022-10-31T03:40:55;101668.78;;;14.25;81.14
42125;BME280;27787;44.594;11.046;2022-10-31T03:43:52;101666.19;;;14.37;79.91
42125;BME280;27787;44.594;11.046;2022-10-31T03:46:38;101669.75;;;14.42;79.35
42125;BME280;27787;44.594;11.046;2022-10-31T03:49:23;101675.16;;;14.47;78.56
42125;BME280;27787;44.594;11.046;2022-10-31T03:52:10;101675.16;;;14.48;78.32
42125;BME280;27787;44.594;11.046;2022-10-31T03:55:10;101669.84;;;14.47;77.99
42125;BME280;27787;44.594;11.046;2022-10-31T03:58:18;101675.16;;;14.51;77.80
42125;BME280;27787;44.594;11.046;2022-10-31T04:01:06;101666.31;;;14.52;77.58
42125;BME280;27787;44.594;11.046;2022-10-31T04:03:51;101665.41;;;14.49;77.54
42125;BME280;27787;44.594;11.046;2022-10-31T04:06:37;101666.31;;;14.51;77.69
42125;BME280;27787;44.594;11.046;2022-10-31T04:09:25;101668.97;;;14.51;78.12
42125;BME280;27787;44.594;11.046;2022-10-31T04:12:12;101661.00;;;14.51;77.47
42125;BME280;27787;44.594;11.046;2022-10-31T04:15:18;101672.53;;;14.53;77.35
42125;BME280;27787;44.594;11.046;2022-10-31T04:18:04;101676.94;;;14.46;78.18
42125;BME280;27787;44.594;11.046;2022-10-31T04:20:59;101679.50;;;14.40;77.55
42125;BME280;27787;44.594;11.046;2022-10-31T04:23:45;101674.09;;;14.29;78.28
42125;BME280;27787;44.594;11.046;2022-10-31T04:26:36;101674.03;;;14.18;79.07
42125;BME280;27787;44.594;11.046;2022-10-31T04:29:21;101675.75;;;14.07;79.08
42125;BME280;27787;44.594;11.046;2022-10-31T04:32:05;101673.81;;;13.93;79.86
42125;BME280;27787;44.594;11.046;2022-10-31T04:34:49;101673.78;;;13.85;80.49
42125;BME280;27787;44.594;11.046;2022-10-31T04:37:34;101673.69;;;13.77;81.08
42125;BME280;27787;44.594;11.046;2022-10-31T04:40:19;101680.75;;;13.74;81.11
42125;BME280;27787;44.594;11.046;2022-10-31T04:43:12;101683.38;;;13.71;81.49
42125;BME280;27787;44.594;11.046;2022-10-31T04:46:00;101681.59;;;13.68;81.63
42125;BME280;27787;44.594;11.046;2022-10-31T04:48:44;101675.34;;;13.65;81.71
42125;BME280;27787;44.594;11.046;2022-10-31T04:51:29;101678.88;;;13.64;82.12
42125;BME280;27787;44.594;11.046;2022-10-31T04:54:13;101674.47;;;13.64;81.66
42125;BME280;27787;44.594;11.046;2022-10-31T04:57:12;101675.34;;;13.66;81.64
42125;BME280;27787;44.594;11.046;2022-10-31T04:59:57;101674.56;;;13.73;81.85
42125;BME280;27787;44.594;11.046;2022-10-31T05:02:46;101671.09;;;13.80;81.09
42125;BME280;27787;44.594;11.046;2022-10-31T05:05:31;101664.94;;;13.87;80.54
42125;BME280;27787;44.594;11.046;2022-10-31T05:08:18;101665.94;;;13.99;79.95
42125;BME280;27787;44.594;11.046;2022-10-31T05:11:06;101672.22;;;14.10;78.89
42125;BME280;27787;44.594;11.046;2022-10-31T05:13:51;101678.44;;;14.16;78.03
42125;BME280;27787;44.594;11.046;2022-10-31T05:16:55;101680.25;;;14.21;77.61
42125;BME280;27787;44.594;11.046;2022-10-31T05:20:11;101679.34;;;14.18;77.45
42125;BME280;27787;44.594;11.046;2022-10-31T05:23:20;101680.25;;;14.22;77.48
42125;BME280;27787;44.594;11.046;2022-10-31T05:26:04;101680.25;;;14.22;76.78
42125;BME280;27787;44.594;11.046;2022-10-31T05:28:48;101677.56;;;14.19;77.36
42125;BME280;27787;44.594;11.046;2022-10-31T05:31:33;101682.00;;;14.18;77.95
42125;BME280;27787;44.594;11.046;2022-10-31T05:34:18;101681.19;;;14.27;77.11
42125;BME280;27787;44.594;11.046;2022-10-31T05:37:02;101679.47;;;14.32;76.78
42125;BME280;27787;44.594;11.046;2022-10-31T05:39:46;101680.31;;;14.31;77.12
42125;BME280;27787;44.594;11.046;2022-10-31T05:42:33;101676.81;;;14.32;76.84
42125;BME280;27787;44.594;11.046;2022-10-31T05:45:18;101675.88;;;14.27;77.43
42125;BME280;27787;44.594;11.046;2022-10-31T05:48:09;101679.38;;;14.23;78.05
42125;BME280;27787;44.594;11.046;2022-10-31T05:51:12;101674.09;;;14.26;78.38
42125;BME280;27787;44.594;11.046;2022-10-31T05:53:56;101677.63;;;14.28;78.44
42125;BME280;27787;44.594;11.046;2022-10-31T05:56:40;101681.25;;;14.36;78.94
42125;BME280;27787;44.594;11.046;2022-10-31T05:59:24;101680.38;;;14.40;78.42
42125;BME280;27787;44.594;11.046;2022-10-31T06:02:08;101679.47;;;14.32;78.16
42125;BME280;27787;44.594;11.046;2022-10-31T06:05:29;101690.81;;;14.14;78.97
42125;BME280;27787;44.594;11.046;2022-10-31T06:08:14;101689.94;;;14.12;79.36
42125;BME280;27787;44.594;11.046;2022-10-31T06:10:59;101691.72;;;14.15;78.67
42125;BME280;27787;44.594;11.046;2022-10-31T06:14:04;101693.44;;;14.10;78.26
42125;BME280;27787;44.594;11.046;2022-10-31T06:17:08;101696.97;;;14.07;79.30
42125;BME280;27787;44.594;11.046;2022-10-31T06:20:05;101703.22;;;14.15;78.44
42125;BME280;27787;44.594;11.046;2022-10-31T06:22:56;101704.16;;;14.22;77.12
42125;BME280;27787;44.594;11.046;2022-10-31T06:25:40;101705.97;;;14.26;77.25
42125;BME280;27787;44.594;11.046;2022-10-31T06:28:28;101703.31;;;14.31;77.14
42125;BME280;27787;44.594;11.046;2022-10-31T06:31:19;101701.63;;;14.39;76.78
42125;BME280;27787;44.594;11.046;2022-10-31T06:34:03;101704.34;;;14.45;76.51
42125;BME280;27787;44.594;11.046;2022-10-31T06:36:47;101713.19;;;14.44;75.88
42125;BME280;27787;44.594;11.046;2022-10-31T06:39:32;101712.22;;;14.34;76.37
42125;BME280;27787;44.594;11.046;2022-10-31T06:42:16;101711.28;;;14.31;77.40
42125;BME280;27787;44.594;11.046;2022-10-31T06:45:02;101722.00;;;14.38;76.94
42125;BME280;27787;44.594;11.046;2022-10-31T06:47:53;101727.41;;;14.48;76.23
42125;BME280;27787;44.594;11.046;2022-10-31T06:50:44;101723.00;;;14.51;76.00
42125;BME280;27787;44.594;11.046;2022-10-31T06:53:31;101723.88;;;14.49;75.92
42125;BME280;27787;44.594;11.046;2022-10-31T06:56:16;101727.41;;;14.49;76.52
42125;BME280;27787;44.594;11.046;2022-10-31T06:59:06;101729.16;;;14.45;77.23
42125;BME280;27787;44.594;11.046;2022-10-31T07:02:10;101724.75;;;14.48;77.91
42125;BME280;27787;44.594;11.046;2022-10-31T07:04:55;101735.38;;;14.46;77.84
42125;BME280;27787;44.594;11.046;2022-10-31T07:07:40;101741.50;;;14.43;78.42
42125;BME280;27787;44.594;11.046;2022-10-31T07:10:26;101739.72;;;14.42;78.05
42125;BME280;27787;44.594;11.046;2022-10-31T07:13:17;101734.44;;;14.44;77.64
42125;BME280;27787;44.594;11.046;2022-10-31T07:16:08;101744.25;;;14.53;77.59
42125;BME280;27787;44.594;11.046;2022-10-31T07:18:55;101745.22;;;14.64;76.94
42125;BME280;27787;44.594;11.046;2022-10-31T07:21:40;101742.63;;;14.74;76.04
42125;BME280;27787;44.594;11.046;2022-10-31T07:24:24;101740.88;;;14.78;75.52
42125;BME280;27787;44.594;11.046;2022-10-31T07:27:47;101740.00;;;14.84;76.19
42125;BME280;27787;44.594;11.046;2022-10-31T07:30:31;101745.38;;;14.91;75.85
42125;BME280;27787;44.594;11.046;2022-10-31T07:33:16;101739.22;;;15.01;76.14
42125;BME280;27787;44.594;11.046;2022-10-31T07:36:22;101742.78;;;15.08;76.84
42125;BME280;27787;44.594;11.046;2022-10-31T07:39:09;101737.53;;;15.13;77.73
42125;BME280;27787;44.594;11.046;2022-10-31T07:41:54;101747.28;;;15.20;78.06
42125;BME280;27787;44.594;11.046;2022-10-31T07:44:38;101757.03;;;15.22;78.72
42125;BME280;27787;44.594;11.046;2022-10-31T07:47:43;101754.41;;;15.27;79.15
42125;BME280;27787;44.594;11.046;2022-10-31T07:50:54;101750.88;;;15.35;79.66
42125;BME280;27787;44.594;11.046;2022-10-31T07:53:58;101747.38;;;15.44;79.50
42125;BME280;27787;44.594;11.046;2022-10-31T07:56:46;101753.63;;;15.54;79.88
42125;BME280;27787;44.594;11.046;2022-10-31T07:59:32;101746.59;;;15.63;80.41
42125;BME280;27787;44.594;11.046;2022-10-31T08:02:17;101757.25;;;15.70;80.95
42125;BME280;27787;44.594;11.046;2022-10-31T08:05:05;101759.94;;;15.76;81.54
42125;BME280;27787;44.594;11.046;2022-10-31T08:08:09;101751.06;;;15.83;82.13
42125;BME280;27787;44.594;11.046;2022-10-31T08:10:54;101748.38;;;15.87;82.54
42125;BME280;27787;44.594;11.046;2022-10-31T08:13:39;101752.84;;;15.96;82.50
42125;BME280;27787;44.594;11.046;2022-10-31T08:16:24;101753.72;;;16.01;82.48
42125;BME280;27787;44.594;11.046;2022-10-31T08:19:13;101757.31;;;16.08;82.40
42125;BME280;27787;44.594;11.046;2022-10-31T08:21:57;101761.72;;;16.13;82.88
42125;BME280;27787;44.594;11.046;2022-10-31T08:24:42;101756.41;;;16.19;83.36
42125;BME280;27787;44.594;11.046;2022-10-31T08:27:26;101762.63;;;16.21;82.34
42125;BME280;27787;44.594;11.046;2022-10-31T08:30:13;101770.63;;;16.25;81.29
42125;BME280;27787;44.594;11.046;2022-10-31T08:33:12;101759.97;;;16.31;81.00
42125;BME280;27787;44.594;11.046;2022-10-31T08:36:15;101767.06;;;16.38;80.02
42125;BME280;27787;44.594;11.046;2022-10-31T08:39:19;101758.19;;;16.45;80.31
42125;BME280;27787;44.594;11.046;2022-10-31T08:42:04;101761.72;;;16.51;80.00
42125;BME280;27787;44.594;11.046;2022-10-31T08:44:48;101767.94;;;16.60;79.57
42125;BME280;27787;44.594;11.046;2022-10-31T08:47:32;101766.19;;;16.68;79.79
42125;BME280;27787;44.594;11.046;2022-10-31T08:50:17;101766.16;;;16.77;79.44
42125;BME280;27787;44.594;11.046;2022-10-31T08:53:17;101756.38;;;16.84;79.06
42125;BME280;27787;44.594;11.046;2022-10-31T08:56:07;101755.47;;;16.91;79.19
42125;BME280;27787;44.594;11.046;2022-10-31T08:58:53;101759.88;;;16.99;79.07
42125;BME280;27787;44.594;11.046;2022-10-31T09:01:45;101745.63;;;17.08;78.23
42125;BME280;27787;44.594;11.046;2022-10-31T09:04:29;101742.03;;;17.15;77.90
42125;BME280;27787;44.594;11.046;2022-10-31T09:07:15;101742.91;;;17.25;77.51
42125;BME280;27787;44.594;11.046;2022-10-31T09:10:00;101748.19;;;17.35;77.04
42125;BME280;27787;44.594;11.046;2022-10-31T09:12:57;101745.47;;;17.42;77.85
42125;BME280;27787;44.594;11.046;2022-10-31T09:16:01;101739.19;;;17.52;77.78
42125;BME280;27787;44.594;11.046;2022-10-31T09:18:46;101735.63;;;17.54;78.02
42125;BME280;27787;44.594;11.046;2022-10-31T09:21:34;101732.06;;;17.55;78.06
42125;BME280;27787;44.594;11.046;2022-10-31T09:24:17;101735.59;;;17.56;78.43
42125;BME280;27787;44.594;11.046;2022-10-31T09:27:01;101738.28;;;17.59;79.23
42125;BME280;27787;44.594;11.046;2022-10-31T09:29:46;101741.81;;;17.61;79.20
42125;BME280;27787;44.594;11.046;2022-10-31T09:32:30;101740.91;;;17.65;80.01
42125;BME280;27787;44.594;11.046;2022-10-31T09:35:15;101744.47;;;17.73;79.50
42125;BME280;27787;44.594;11.046;2022-10-31T09:38:05;101736.38;;;17.82;78.81
42125;BME280;27787;44.594;11.046;2022-10-31T09:44:17;101734.47;;;17.96;78.86
42125;BME280;27787;44.594;11.046;2022-10-31T09:47:14;101738.94;;;17.97;78.93
42125;BME280;27787;44.594;11.046;2022-10-31T09:50:21;101737.97;;;18.11;78.54
42125;BME280;27787;44.594;11.046;2022-10-31T09:56:12;101731.66;;;18.18;78.58
42125;BME280;27787;44.594;11.046;2022-10-31T09:59:02;101734.31;;;18.19;78.42
42125;BME280;27787;44.594;11.046;2022-10-31T10:05:08;101735.06;;;18.34;79.39
42125;BME280;27787;44.594;11.046;2022-10-31T10:08:09;101732.34;;;18.41;78.64
42125;BME280;27787;44.594;11.046;2022-10-31T10:11:32;101727.81;;;18.46;78.98
42125;BME280;27787;44.594;11.046;2022-10-31T10:14:36;101738.47;;;18.52;79.05
42125;BME280;27787;44.594;11.046;2022-10-31T10:20:25;101733.91;;;18.65;78.73
42125;BME280;27787;44.594;11.046;2022-10-31T10:24:19;101728.41;;;18.80;77.67
42125;BME280;27787;44.594;11.046;2022-10-31T10:26:39;101731.88;;;18.90;77.19
42125;BME280;27787;44.594;11.046;2022-10-31T10:29:35;101721.00;;;19.04;76.36
42125;BME280;27787;44.594;11.046;2022-10-31T10:32:28;101722.69;;;19.09;76.04
42125;BME280;27787;44.594;11.046;2022-10-31T10:35:35;101711.94;;;19.12;75.18
42125;BME280;27787;44.594;11.046;2022-10-31T10:38:27;101714.69;;;19.08;75.13
42125;BME280;27787;44.594;11.046;2022-10-31T10:41:20;101713.81;;;19.07;75.78
42125;BME280;27787;44.594;11.046;2022-10-31T10:44:08;101713.75;;;19.10;75.13
42125;BME280;27787;44.594;11.046;2022-10-31T10:46:55;101716.38;;;19.13;75.11
42125;BME280;27787;44.594;11.046;2022-10-31T10:50:03;101714.56;;;19.19;74.23
42125;BME280;27787;44.594;11.046;2022-10-31T10:56:14;101701.84;;;19.34;72.90
42125;BME280;27787;44.594;11.046;2022-10-31T10:59:01;101706.31;;;19.34;72.45
42125;BME280;27787;44.594;11.046;2022-10-31T11:01:50;101701.88;;;19.33;72.27
42125;BME280;27787;44.594;11.046;2022-10-31T11:04:35;101697.31;;;19.38;72.80
42125;BME280;27787;44.594;11.046;2022-10-31T11:07:20;101696.31;;;19.47;72.49
42125;BME280;27787;44.594;11.046;2022-10-31T11:10:06;101697.19;;;19.47;72.03
42125;BME280;27787;44.594;11.046;2022-10-31T11:13:02;101683.78;;;19.49;71.89
42125;BME280;27787;44.594;11.046;2022-10-31T11:15:55;101679.25;;;19.54;71.78
42125;BME280;27787;44.594;11.046;2022-10-31T11:18:44;101676.59;;;19.54;72.48
42125;BME280;27787;44.594;11.046;2022-10-31T11:21:30;101675.66;;;19.58;71.86
42125;BME280;27787;44.594;11.046;2022-10-31T11:27:05;101671.06;;;19.64;69.80
42125;BME280;27787;44.594;11.046;2022-10-31T11:30:04;101663.81;;;19.72;67.89
42125;BME280;27787;44.594;11.046;2022-10-31T11:32:50;101667.28;;;19.78;68.16
42125;BME280;27787;44.594;11.046;2022-10-31T11:35:39;101662.84;;;19.77;68.96
42125;BME280;27787;44.594;11.046;2022-10-31T11:38:34;101663.63;;;19.85;70.40
42125;BME280;27787;44.594;11.046;2022-10-31T11:41:32;101659.81;;;19.98;69.62
42125;BME280;27787;44.594;11.046;2022-10-31T11:47:03;101654.38;;;20.02;67.49
42125;BME280;27787;44.594;11.046;2022-10-31T11:49:49;101649.97;;;19.98;68.17
42125;BME280;27787;44.594;11.046;2022-10-31T11:52:34;101651.59;;;20.09;67.92
42125;BME280;27787;44.594;11.046;2022-10-31T11:55:38;101654.06;;;20.21;67.63
42125;BME280;27787;44.594;11.046;2022-10-31T11:58:25;101646.94;;;20.20;67.79
42125;BME280;27787;44.594;11.046;2022-10-31T12:01:31;101637.84;;;20.27;67.58
42125;BME280;27787;44.594;11.046;2022-10-31T12:04:15;101639.75;;;20.22;68.34
42125;BME280;27787;44.594;11.046;2022-10-31T12:07:00;101639.81;;;20.17;68.21
42125;BME280;27787;44.594;11.046;2022-10-31T12:09:44;101633.59;;;20.15;68.75
42125;BME280;27787;44.594;11.046;2022-10-31T12:12:51;101631.69;;;20.22;68.29
42125;BME280;27787;44.594;11.046;2022-10-31T12:15:38;101619.03;;;20.28;67.55
42125;BME280;27787;44.594;11.046;2022-10-31T12:18:41;101620.03;;;20.24;67.31
42125;BME280;27787;44.594;11.046;2022-10-31T12:21:45;101622.72;;;20.24;67.93
42125;BME280;27787;44.594;11.046;2022-10-31T12:58:17;101601.00;;;20.81;67.17
42125;BME280;27787;44.594;11.046;2022-10-31T13:04:05;101601.69;;;20.91;65.71
42125;BME280;27787;44.594;11.046;2022-10-31T13:06:59;101597.13;;;20.95;65.53
42125;BME280;27787;44.594;11.046;2022-10-31T13:09:50;101596.22;;;20.96;65.56
42125;BME280;27787;44.594;11.046;2022-10-31T13:12:38;101585.69;;;20.86;65.50
42125;BME280;27787;44.594;11.046;2022-10-31T13:15:29;101581.28;;;20.84;65.84
42125;BME280;27787;44.594;11.046;2022-10-31T13:18:25;101580.50;;;20.79;65.22
42125;BME280;27787;44.594;11.046;2022-10-31T13:21:17;101583.09;;;20.82;64.91
42125;BME280;27787;44.594;11.046;2022-10-31T13:24:04;101579.59;;;20.78;65.03
42125;BME280;27787;44.594;11.046;2022-10-31T13:26:54;101577.00;;;20.75;65.06
42125;BME280;27787;44.594;11.046;2022-10-31T13:29:44;101569.91;;;20.73;64.99
42125;BME280;27787;44.594;11.046;2022-10-31T13:32:49;101570.81;;;20.72;65.66
42125;BME280;27787;44.594;11.046;2022-10-31T13:35:55;101567.25;;;20.70;66.34
42125;BME280;27787;44.594;11.046;2022-10-31T13:44:51;101557.97;;;20.86;65.64
42125;BME280;27787;44.594;11.046;2022-10-31T13:47:35;101562.44;;;20.87;65.86
42125;BME280;27787;44.594;11.046;2022-10-31T13:50:22;101564.22;;;20.86;65.62
42125;BME280;27787;44.594;11.046;2022-10-31T13:53:18;101558.78;;;20.89;65.21
42125;BME280;27787;44.594;11.046;2022-10-31T13:59:02;101561.41;;;20.92;65.51
42125;BME280;27787;44.594;11.046;2022-10-31T14:01:50;101559.63;;;20.91;65.87
42125;BME280;27787;44.594;11.046;2022-10-31T14:04:46;101551.59;;;20.91;66.06
42125;BME280;27787;44.594;11.046;2022-10-31T14:07:32;101557.75;;;20.95;66.23
42125;BME280;27787;44.594;11.046;2022-10-31T14:10:25;101546.09;;;20.98;66.29
42125;BME280;27787;44.594;11.046;2022-10-31T14:13:34;101546.91;;;21.01;65.93
42125;BME280;27787;44.594;11.046;2022-10-31T14:16:27;101551.22;;;21.07;65.93
42125;BME280;27787;44.594;11.046;2022-10-31T14:19:19;101548.41;;;21.13;65.36
42125;BME280;27787;44.594;11.046;2022-10-31T14:22:20;101553.69;;;21.16;65.33
42125;BME280;27787;44.594;11.046;2022-10-31T14:28:34;101541.03;;;21.23;65.16
42125;BME280;27787;44.594;11.046;2022-10-31T14:31:42;101542.78;;;21.25;64.72
42125;BME280;27787;44.594;11.046;2022-10-31T14:34:33;101533.81;;;21.26;64.52
42125;BME280;27787;44.594;11.046;2022-10-31T14:40:42;101539.94;;;21.31;65.18
42125;BME280;27787;44.594;11.046;2022-10-31T14:46:42;101535.25;;;21.39;66.42
42125;BME280;27787;44.594;11.046;2022-10-31T14:52:40;101540.47;;;21.45;65.80
42125;BME280;27787;44.594;11.046;2022-10-31T14:55:27;101541.44;;;21.43;65.36
42125;BME280;27787;44.594;11.046;2022-10-31T14:58:16;101542.44;;;21.39;65.82
42125;BME280;27787;44.594;11.046;2022-10-31T15:01:02;101539.84;;;21.36;65.81
42125;BME280;27787;44.594;11.046;2022-10-31T15:03:47;101537.28;;;21.30;65.96
42125;BME280;27787;44.594;11.046;2022-10-31T15:06:43;101530.22;;;21.26;66.16
42125;BME280;27787;44.594;11.046;2022-10-31T15:09:31;101529.44;;;21.19;66.33
42125;BME280;27787;44.594;11.046;2022-10-31T15:12:22;101527.00;;;21.08;66.38
42125;BME280;27787;44.594;11.046;2022-10-31T15:15:11;101525.41;;;21.01;66.54
42125;BME280;27787;44.594;11.046;2022-10-31T15:17:58;101527.34;;;20.95;66.93
42125;BME280;27787;44.594;11.046;2022-10-31T15:20:44;101523.91;;;20.89;66.76
42125;BME280;27787;44.594;11.046;2022-10-31T15:23:29;101526.66;;;20.86;66.90
42125;BME280;27787;44.594;11.046;2022-10-31T15:26:19;101525.81;;;20.84;67.00
42125;BME280;27787;44.594;11.046;2022-10-31T15:29:05;101520.53;;;20.80;66.77
42125;BME280;27787;44.594;11.046;2022-10-31T15:32:18;101519.75;;;20.75;66.67
42125;BME280;27787;44.594;11.046;2022-10-31T15:35:09;101513.59;;;20.71;66.76
42125;BME280;27787;44.594;11.046;2022-10-31T15:37:54;101510.91;;;20.70;67.06
42125;BME280;27787;44.594;11.046;2022-10-31T15:40:39;101507.38;;;20.68;68.40
42125;BME280;27787;44.594;11.046;2022-10-31T15:43:23;101512.78;;;20.66;69.07
42125;BME280;27787;44.594;11.046;2022-10-31T15:46:08;101514.72;;;20.61;69.74
42125;BME280;27787;44.594;11.046;2022-10-31T15:48:54;101518.38;;;20.55;70.08
42125;BME280;27787;44.594;11.046;2022-10-31T15:51:38;101508.69;;;20.50;70.08
42125;BME280;27787;44.594;11.046;2022-10-31T15:54:22;101513.09;;;20.52;69.86
42125;BME280;27787;44.594;11.046;2022-10-31T15:57:10;101506.84;;;20.52;69.17
42125;BME280;27787;44.594;11.046;2022-10-31T15:59:55;101504.31;;;20.46;68.59
42125;BME280;27787;44.594;11.046;2022-10-31T16:02:39;101516.84;;;20.44;68.47
42125;BME280;27787;44.594;11.046;2022-10-31T16:05:23;101510.72;;;20.37;68.69
42125;BME280;27787;44.594;11.046;2022-10-31T16:11:56;101511.75;;;20.30;69.21
42125;BME280;27787;44.594;11.046;2022-10-31T16:14:27;101518.91;;;20.29;69.17
42125;BME280;27787;44.594;11.046;2022-10-31T16:17:14;101511.78;;;20.28;69.71
42125;BME280;27787;44.594;11.046;2022-10-31T16:20:02;101528.81;;;20.26;70.26
42125;BME280;27787;44.594;11.046;2022-10-31T16:22:49;101527.13;;;20.22;70.16
42125;BME280;27787;44.594;11.046;2022-10-31T16:25:36;101538.81;;;20.19;70.39